sensor_id;sensor_type;location;lat;lon;timestamp;P1;durP1;ratioP1;P2;durP2;ratioP2
20846;SDS011;10584;50.854;12.902;2022-09-03T00:01:22;6.73;;;2.90;;
20846;SDS011;10584;50.854;12.902;2022-09-03T00:06:42;3.27;;;2.67;;
20846;SDS011;10584;50.854;12.902;2022-09-03T00:11:51;4.73;;;2.80;;
20846;SDS011;10584;50.854;12.902;2022-09-03T00:17:02;4.73;;;2.90;;
20846;SDS011;10584;50.854;12.902;2022-09-03T00:22:18;3.97;;;2.77;;
20846;SDS011;10584;50.854;12.902;2022-09-03T00:27:28;3.67;;;2.70;;
20846;SDS011;10584;50.854;12.902;2022-09-03T00:32:49;5.33;;;2.97;;
20846;SDS011;10584;50.854;12.902;2022-09-03T00:37:55;6.13;;;3.20;;
20846;SDS011;10584;50.854;12.902;2022-09-03T01:09:46;5.37;;;2.93;;
20846;SDS011;10584;50.854;12.902;2022-09-03T01:15:00;6.90;;;3.40;;
20846;SDS011;10584;50.854;12.902;2022-09-03T01:25:48;5.00;;;3.10;;
20846;SDS011;10584;50.854;12.902;2022-09-03T01:36:31;8.03;;;3.30;;
20846;SDS011;10584;50.854;12.902;2022-09-03T01:52:53;5.00;;;3.20;;
20846;SDS011;10584;50.854;12.902;2022-09-03T01:58:06;5.03;;;3.13;;
20846;SDS011;10584;50.854;12.902;2022-09-03T02:03:19;4.53;;;3.20;;
20846;SDS011;10584;50.854;12.902;2022-09-03T02:08:23;4.23;;;3.00;;
20846;SDS011;10584;50.854;12.902;2022-09-03T02:18:36;7.17;;;3.30;;
20846;SDS011;10584;50.854;12.902;2022-09-03T02:23:43;7.97;;;2.83;;
20846;SDS011;10584;50.854;12.902;2022-09-03T02:28:47;3.87;;;2.93;;
20846;SDS011;10584;50.854;12.902;2022-09-03T02:33:50;5.23;;;3.43;;
20846;SDS011;10584;50.854;12.902;2022-09-03T02:38:53;4.17;;;3.00;;
20846;SDS011;10584;50.854;12.902;2022-09-03T02:49:42;5.20;;;3.13;;
20846;SDS011;10584;50.854;12.902;2022-09-03T02:54:46;4.50;;;2.97;;
20846;SDS011;10584;50.854;12.902;2022-09-03T02:59:49;4.60;;;3.10;;
20846;SDS011;10584;50.854;12.902;2022-09-03T03:04:52;4.97;;;3.20;;
20846;SDS011;10584;50.854;12.902;2022-09-03T03:09:56;4.37;;;2.97;;
20846;SDS011;10584;50.854;12.902;2022-09-03T03:14:59;4.83;;;3.23;;
20846;SDS011;10584;50.854;12.902;2022-09-03T03:20:02;5.00;;;3.13;;
20846;SDS011;10584;50.854;12.902;2022-09-03T03:25:05;7.83;;;3.30;;
20846;SDS011;10584;50.854;12.902;2022-09-03T03:30:10;5.43;;;3.13;;
20846;SDS011;10584;50.854;12.902;2022-09-03T03:35:14;5.00;;;2.87;;
20846;SDS011;10584;50.854;12.902;2022-09-03T03:40:17;5.00;;;2.97;;
20846;SDS011;10584;50.854;12.902;2022-09-03T03:45:20;4.90;;;3.17;;
20846;SDS011;10584;50.854;12.902;2022-09-03T03:50:24;5.90;;;2.80;;
20846;SDS011;10584;50.854;12.902;2022-09-03T03:55:27;4.47;;;2.93;;
20846;SDS011;10584;50.854;12.902;2022-09-03T04:00:35;4.17;;;2.80;;
20846;SDS011;10584;50.854;12.902;2022-09-03T04:05:40;4.07;;;2.60;;
20846;SDS011;10584;50.854;12.902;2022-09-03T04:10:49;4.47;;;2.83;;
20846;SDS011;10584;50.854;12.902;2022-09-03T04:15:52;4.57;;;2.93;;
20846;SDS011;10584;50.854;12.902;2022-09-03T04:21:21;6.13;;;3.23;;
20846;SDS011;10584;50.854;12.902;2022-09-03T04:26:29;4.50;;;2.83;;
20846;SDS011;10584;50.854;12.902;2022-09-03T04:31:34;6.33;;;3.23;;
20846;SDS011;10584;50.854;12.902;2022-09-03T04:36:38;4.10;;;3.20;;
20846;SDS011;10584;50.854;12.902;2022-09-03T04:41:41;5.00;;;3.30;;
20846;SDS011;10584;50.854;12.902;2022-09-03T04:46:45;6.00;;;3.10;;
20846;SDS011;10584;50.854;12.902;2022-09-03T04:51:48;4.70;;;3.23;;
20846;SDS011;10584;50.854;12.902;2022-09-03T04:56:52;6.47;;;3.53;;
20846;SDS011;10584;50.854;12.902;2022-09-03T05:01:55;5.73;;;3.13;;
20846;SDS011;10584;50.854;12.902;2022-09-03T05:06:58;9.10;;;3.90;;
20846;SDS011;10584;50.854;12.902;2022-09-03T05:12:01;5.70;;;3.57;;
20846;SDS011;10584;50.854;12.902;2022-09-03T05:17:04;6.40;;;4.07;;
20846;SDS011;10584;50.854;12.902;2022-09-03T05:22:08;5.40;;;3.80;;
20846;SDS011;10584;50.854;12.902;2022-09-03T05:27:11;5.60;;;3.80;;
20846;SDS011;10584;50.854;12.902;2022-09-03T05:32:14;6.40;;;4.30;;
20846;SDS011;10584;50.854;12.902;2022-09-03T05:37:18;8.60;;;4.87;;
20846;SDS011;10584;50.854;12.902;2022-09-03T05:42:20;8.67;;;5.07;;
20846;SDS011;10584;50.854;12.902;2022-09-03T05:47:23;10.03;;;5.60;;
20846;SDS011;10584;50.854;12.902;2022-09-03T05:52:26;13.37;;;5.73;;
20846;SDS011;10584;50.854;12.902;2022-09-03T05:57:29;9.97;;;5.97;;
20846;SDS011;10584;50.854;12.902;2022-09-03T06:02:32;9.63;;;6.03;;
20846;SDS011;10584;50.854;12.902;2022-09-03T06:07:36;10.83;;;6.43;;
20846;SDS011;10584;50.854;12.902;2022-09-03T06:12:39;9.33;;;6.27;;
20846;SDS011;10584;50.854;12.902;2022-09-03T06:17:43;10.60;;;5.73;;
20846;SDS011;10584;50.854;12.902;2022-09-03T06:22:49;8.23;;;4.60;;
20846;SDS011;10584;50.854;12.902;2022-09-03T06:27:53;7.30;;;3.77;;
20846;SDS011;10584;50.854;12.902;2022-09-03T06:32:57;4.73;;;3.07;;
20846;SDS011;10584;50.854;12.902;2022-09-03T06:38:00;4.10;;;2.90;;
20846;SDS011;10584;50.854;12.902;2022-09-03T06:43:03;4.57;;;2.80;;
20846;SDS011;10584;50.854;12.902;2022-09-03T06:48:07;4.93;;;2.93;;
20846;SDS011;10584;50.854;12.902;2022-09-03T06:53:09;5.83;;;2.80;;
20846;SDS011;10584;50.854;12.902;2022-09-03T06:58:14;4.60;;;2.50;;
20846;SDS011;10584;50.854;12.902;2022-09-03T07:03:18;5.60;;;2.70;;
20846;SDS011;10584;50.854;12.902;2022-09-03T07:08:21;5.37;;;2.30;;
20846;SDS011;10584;50.854;12.902;2022-09-03T07:13:24;5.47;;;2.30;;
20846;SDS011;10584;50.854;12.902;2022-09-03T07:18:29;7.83;;;2.33;;
20846;SDS011;10584;50.854;12.902;2022-09-03T07:23:33;3.40;;;1.90;;
20846;SDS011;10584;50.854;12.902;2022-09-03T07:28:37;4.27;;;2.20;;
20846;SDS011;10584;50.854;12.902;2022-09-03T07:33:42;3.70;;;2.20;;
20846;SDS011;10584;50.854;12.902;2022-09-03T07:38:45;4.20;;;2.00;;
20846;SDS011;10584;50.854;12.902;2022-09-03T07:43:48;5.03;;;2.13;;
20846;SDS011;10584;50.854;12.902;2022-09-03T07:48:52;4.73;;;2.50;;
20846;SDS011;10584;50.854;12.902;2022-09-03T07:53:57;4.73;;;2.57;;
20846;SDS011;10584;50.854;12.902;2022-09-03T07:59:03;4.87;;;2.40;;
20846;SDS011;10584;50.854;12.902;2022-09-03T08:04:06;7.93;;;2.87;;
20846;SDS011;10584;50.854;12.902;2022-09-03T08:09:10;4.90;;;2.00;;
20846;SDS011;10584;50.854;12.902;2022-09-03T08:14:14;10.27;;;2.80;;
20846;SDS011;10584;50.854;12.902;2022-09-03T08:19:18;3.83;;;1.90;;
20846;SDS011;10584;50.854;12.902;2022-09-03T08:24:21;4.33;;;2.27;;
20846;SDS011;10584;50.854;12.902;2022-09-03T08:29:26;3.77;;;2.13;;
20846;SDS011;10584;50.854;12.902;2022-09-03T08:34:29;4.30;;;2.00;;
20846;SDS011;10584;50.854;12.902;2022-09-03T08:39:33;6.77;;;2.93;;
20846;SDS011;10584;50.854;12.902;2022-09-03T09:00:19;3.60;;;2.00;;
20846;SDS011;10584;50.854;12.902;2022-09-03T09:11:04;8.20;;;2.00;;
20846;SDS011;10584;50.854;12.902;2022-09-03T09:22:08;4.07;;;1.80;;
20846;SDS011;10584;50.854;12.902;2022-09-03T09:27:18;3.33;;;2.00;;
20846;SDS011;10584;50.854;12.902;2022-09-03T09:32:21;3.17;;;2.00;;
20846;SDS011;10584;50.854;12.902;2022-09-03T09:37:24;4.40;;;2.07;;
20846;SDS011;10584;50.854;12.902;2022-09-03T09:42:28;5.47;;;2.00;;
20846;SDS011;10584;50.854;12.902;2022-09-03T09:47:34;4.43;;;2.27;;
20846;SDS011;10584;50.854;12.902;2022-09-03T09:52:40;7.00;;;2.20;;
20846;SDS011;10584;50.854;12.902;2022-09-03T09:57:51;4.87;;;2.03;;
20846;SDS011;10584;50.854;12.902;2022-09-03T10:03:06;2.57;;;1.87;;
20846;SDS011;10584;50.854;12.902;2022-09-03T10:08:18;4.03;;;2.20;;
20846;SDS011;10584;50.854;12.902;2022-09-03T10:13:30;4.97;;;1.97;;
20846;SDS011;10584;50.854;12.902;2022-09-03T10:24:59;4.63;;;2.20;;
20846;SDS011;10584;50.854;12.902;2022-09-03T10:30:04;2.87;;;2.20;;
20846;SDS011;10584;50.854;12.902;2022-09-03T10:36:03;4.27;;;2.20;;
20846;SDS011;10584;50.854;12.902;2022-09-03T10:40:48;3.23;;;1.80;;
20846;SDS011;10584;50.854;12.902;2022-09-03T10:51:32;8.47;;;2.90;;
20846;SDS011;10584;50.854;12.902;2022-09-03T10:56:56;3.80;;;2.40;;
20846;SDS011;10584;50.854;12.902;2022-09-03T11:02:14;9.20;;;2.30;;
20846;SDS011;10584;50.854;12.902;2022-09-03T11:07:36;3.47;;;2.00;;
20846;SDS011;10584;50.854;12.902;2022-09-03T11:12:56;5.20;;;1.80;;
20846;SDS011;10584;50.854;12.902;2022-09-03T11:23:09;4.60;;;2.20;;
20846;SDS011;10584;50.854;12.902;2022-09-03T11:33:42;5.83;;;2.50;;
20846;SDS011;10584;50.854;12.902;2022-09-03T11:38:49;4.27;;;2.17;;
20846;SDS011;10584;50.854;12.902;2022-09-03T11:43:53;3.80;;;1.90;;
20846;SDS011;10584;50.854;12.902;2022-09-03T11:49:10;3.10;;;2.20;;
20846;SDS011;10584;50.854;12.902;2022-09-03T11:59:24;2.67;;;1.57;;
20846;SDS011;10584;50.854;12.902;2022-09-03T12:04:49;5.03;;;1.80;;
20846;SDS011;10584;50.854;12.902;2022-09-03T12:21:15;4.03;;;1.80;;
20846;SDS011;10584;50.854;12.902;2022-09-03T12:26:20;3.83;;;2.40;;
20846;SDS011;10584;50.854;12.902;2022-09-03T12:36:40;4.27;;;2.37;;
20846;SDS011;10584;50.854;12.902;2022-09-03T12:52:48;4.00;;;2.30;;
20846;SDS011;10584;50.854;12.902;2022-09-03T13:08:09;3.57;;;2.07;;
20846;SDS011;10584;50.854;12.902;2022-09-03T13:13:20;3.27;;;2.00;;
20846;SDS011;10584;50.854;12.902;2022-09-03T13:29:56;6.23;;;2.10;;
20846;SDS011;10584;50.854;12.902;2022-09-03T13:45:40;8.70;;;2.80;;
20846;SDS011;10584;50.854;12.902;2022-09-03T13:51:25;3.00;;;2.17;;
20846;SDS011;10584;50.854;12.902;2022-09-03T14:01:59;4.47;;;2.37;;
20846;SDS011;10584;50.854;12.902;2022-09-03T14:07:14;6.00;;;2.53;;
20846;SDS011;10584;50.854;12.902;2022-09-03T14:17:51;3.40;;;2.10;;
20846;SDS011;10584;50.854;12.902;2022-09-03T14:23:06;4.67;;;2.10;;
20846;SDS011;10584;50.854;12.902;2022-09-03T14:55:20;7.17;;;3.50;;
20846;SDS011;10584;50.854;12.902;2022-09-03T15:00:51;4.10;;;3.07;;
20846;SDS011;10584;50.854;12.902;2022-09-03T15:11:12;4.73;;;2.00;;
20846;SDS011;10584;50.854;12.902;2022-09-03T15:42:46;2.90;;;2.00;;
20846;SDS011;10584;50.854;12.902;2022-09-03T15:47:54;12.83;;;5.70;;
20846;SDS011;10584;50.854;12.902;2022-09-03T15:53:29;7.80;;;3.83;;
20846;SDS011;10584;50.854;12.902;2022-09-03T15:58:55;3.27;;;2.27;;
20846;SDS011;10584;50.854;12.902;2022-09-03T16:15:29;7.67;;;3.87;;
20846;SDS011;10584;50.854;12.902;2022-09-03T16:20:51;8.23;;;3.50;;
20846;SDS011;10584;50.854;12.902;2022-09-03T16:26:03;4.37;;;2.63;;
20846;SDS011;10584;50.854;12.902;2022-09-03T16:48:08;3.97;;;2.20;;
20846;SDS011;10584;50.854;12.902;2022-09-03T16:53:14;3.93;;;2.43;;
20846;SDS011;10584;50.854;12.902;2022-09-03T16:58:43;2.80;;;2.13;;
20846;SDS011;10584;50.854;12.902;2022-09-03T17:14:56;5.60;;;3.67;;
20846;SDS011;10584;50.854;12.902;2022-09-03T17:31:48;10.83;;;3.50;;
20846;SDS011;10584;50.854;12.902;2022-09-03T17:53:38;5.33;;;2.80;;
20846;SDS011;10584;50.854;12.902;2022-09-03T17:59:20;4.50;;;2.70;;
20846;SDS011;10584;50.854;12.902;2022-09-03T18:04:43;3.93;;;2.57;;
20846;SDS011;10584;50.854;12.902;2022-09-03T18:20:52;5.93;;;2.87;;
20846;SDS011;10584;50.854;12.902;2022-09-03T18:26:28;3.77;;;2.80;;
20846;SDS011;10584;50.854;12.902;2022-09-03T18:31:56;4.33;;;3.10;;
20846;SDS011;10584;50.854;12.902;2022-09-03T18:37:20;4.60;;;2.90;;
20846;SDS011;10584;50.854;12.902;2022-09-03T18:42:52;5.50;;;3.03;;
20846;SDS011;10584;50.854;12.902;2022-09-03T18:48:54;6.93;;;3.43;;
20846;SDS011;10584;50.854;12.902;2022-09-03T18:54:24;10.30;;;5.03;;
20846;SDS011;10584;50.854;12.902;2022-09-03T19:00:09;7.57;;;4.13;;
20846;SDS011;10584;50.854;12.902;2022-09-03T19:17:05;6.13;;;3.63;;
20846;SDS011;10584;50.854;12.902;2022-09-03T19:22:39;6.67;;;4.20;;
20846;SDS011;10584;50.854;12.902;2022-09-03T19:50:26;6.17;;;3.23;;
20846;SDS011;10584;50.854;12.902;2022-09-03T19:55:54;4.03;;;3.13;;
20846;SDS011;10584;50.854;12.902;2022-09-03T20:01:18;7.83;;;4.63;;
20846;SDS011;10584;50.854;12.902;2022-09-03T20:06:43;8.30;;;4.17;;
20846;SDS011;10584;50.854;12.902;2022-09-03T20:12:06;8.57;;;4.37;;
20846;SDS011;10584;50.854;12.902;2022-09-03T20:27:43;9.63;;;4.73;;
20846;SDS011;10584;50.854;12.902;2022-09-03T20:54:18;14.10;;;7.43;;
20846;SDS011;10584;50.854;12.902;2022-09-03T20:59:36;10.57;;;6.17;;
20846;SDS011;10584;50.854;12.902;2022-09-03T21:26:24;17.80;;;10.73;;
20846;SDS011;10584;50.854;12.902;2022-09-03T21:31:34;25.47;;;16.17;;
20846;SDS011;10584;50.854;12.902;2022-09-03T21:36:52;30.60;;;16.37;;
20846;SDS011;10584;50.854;12.902;2022-09-03T21:47:40;21.37;;;11.43;;
20846;SDS011;10584;50.854;12.902;2022-09-03T21:53:00;19.57;;;11.73;;
20846;SDS011;10584;50.854;12.902;2022-09-03T22:03:13;11.53;;;6.33;;
20846;SDS011;10584;50.854;12.902;2022-09-03T22:08:26;11.90;;;6.20;;
20846;SDS011;10584;50.854;12.902;2022-09-03T22:18:49;13.63;;;8.73;;
20846;SDS011;10584;50.854;12.902;2022-09-03T22:46:12;42.23;;;21.80;;
20846;SDS011;10584;50.854;12.902;2022-09-03T22:51:17;36.83;;;18.50;;
20846;SDS011;10584;50.854;12.902;2022-09-03T22:56:22;23.00;;;13.23;;
20846;SDS011;10584;50.854;12.902;2022-09-03T23:06:43;33.17;;;19.30;;
20846;SDS011;10584;50.854;12.902;2022-09-03T23:11:56;29.70;;;14.50;;
20846;SDS011;10584;50.854;12.902;2022-09-03T23:17:12;19.63;;;11.27;;
20846;SDS011;10584;50.854;12.902;2022-09-03T23:22:36;22.47;;;12.53;;
20846;SDS011;10584;50.854;12.902;2022-09-03T23:28:01;19.80;;;11.80;;
20846;SDS011;10584;50.854;12.902;2022-09-03T23:33:17;19.07;;;12.40;;
20846;SDS011;10584;50.854;12.902;2022-09-03T23:55:21;15.53;;;9.40;;
